KIKW

Jack Barstow Airport

Midland, Michigan, USA
METAR KIKW 222035Z AUTO 22012KT 10SM SCT050 15/02 A2994 RMK AO2 T01540021
Observed Flight Rules
Oct-22 @ 20:35 UTC (13 minutes ago) Visual Flight Rules
Wind Visibility Clouds
220° at 12 knots 10 miles
  • Scattered at 5,000' AGL
Temperatures Readings
Current 15°C / 59°F
Dewpoint 2°C / 36°F
Humidity 42%
Altimeter 29.94" Hg
Pressure 1014 hPa
Elevation 194
METAR KIKW 222035Z AUTO 22012KT 10SM SCT050 15/02 A2994 RMK AO2 T01540021
Observed Flight Rules
Oct-22 @ 20:35 UTC
(13 minutes ago)
VFR
Wind Visibility
220° at 12 knots 10 miles
Clouds
  • Scattered at 5,000' AGL
Temperature Dewpoint
15°C / 59°F 2°C / 36°F
Humidity Altimeter Pressure
42% 29.94" Hg 1014 hPa